Time;durP1;ratioP1;P1;durP2;ratioP2;P2;SDS_P1;SDS_P2;PMS_P1;PMS_P2;Temp;Humidity;BMP_temperature;BMP_pressure;BME280_temperature;BME280_humidity;BME280_pressure;Samples;Min_cycle;Max_cycle;Signal;HPM_P1;HPM_P2
2023/03/19 00:02:19;;;;;;;3.10;1.95;;;;;;;;;;4954073;29;20041;-69
2023/03/19 00:04:46;;;;;;;3.00;1.70;;;;;;;;;;4953878;29;20396;-69
2023/03/19 00:07:13;;;;;;;2.33;1.55;;;;;;;;;;4958214;28;20023;-69
2023/03/19 00:09:39;;;;;;;2.58;2.08;;;;;;;;;;4960379;28;20037;-69
2023/03/19 00:12:06;;;;;;;4.93;2.55;;;;;;;;;;4960224;28;20056;-69
2023/03/19 00:14:32;;;;;;;6.55;4.38;;;;;;;;;;4960108;29;20031;-69
2023/03/19 00:16:59;;;;;;;8.18;4.72;;;;;;;;;;4960261;29;20038;-69
2023/03/19 00:19:26;;;;;;;8.13;4.95;;;;;;;;;;4960350;29;20030;-69
2023/03/19 00:21:53;;;;;;;7.60;5.40;;;;;;;;;;4960217;28;20086;-69
2023/03/19 00:24:19;;;;;;;6.80;4.05;;;;;;;;;;4960143;29;20515;-70
2023/03/19 00:26:46;;;;;;;5.43;3.55;;;;;;;;;;4942894;29;20043;-69
2023/03/19 00:29:13;;;;;;;7.32;3.13;;;;;;;;;;4959990;28;20027;-69
2023/03/19 00:31:40;;;;;;;3.40;2.58;;;;;;;;;;4959921;29;20043;-69
2023/03/19 00:34:07;;;;;;;2.85;2.20;;;;;;;;;;4960213;29;20403;-69
2023/03/19 00:36:33;;;;;;;4.22;2.30;;;;;;;;;;4947851;28;20036;-70
2023/03/19 00:38:59;;;;;;;4.13;2.13;;;;;;;;;;4940897;29;20027;-69
2023/03/19 00:41:26;;;;;;;2.70;1.70;;;;;;;;;;4941135;29;20038;-69
2023/03/19 00:43:53;;;;;;;2.75;1.95;;;;;;;;;;4940574;29;20052;-69
2023/03/19 00:46:20;;;;;;;3.08;2.10;;;;;;;;;;4940866;29;20031;-69
2023/03/19 00:48:46;;;;;;;2.85;1.80;;;;;;;;;;4940779;29;20035;-69
2023/03/19 00:51:12;;;;;;;2.83;2.38;;;;;;;;;;4941072;29;20034;-69
2023/03/19 00:53:41;;;;;;;3.85;2.72;;;;;;;;;;4940615;29;20047;-69
2023/03/19 00:56:08;;;;;;;3.78;2.90;;;;;;;;;;4940902;29;20032;-69
2023/03/19 00:58:37;;;;;;;6.25;2.88;;;;;;;;;;4940516;29;20028;-69
2023/03/19 01:01:07;;;;;;;6.20;3.03;;;;;;;;;;4940284;29;20031;-69
2023/03/19 01:03:34;;;;;;;4.35;2.92;;;;;;;;;;4940331;29;20038;-69
2023/03/19 01:06:00;;;;;;;5.20;2.25;;;;;;;;;;4940762;29;20028;-70
2023/03/19 01:08:27;;;;;;;4.82;2.80;;;;;;;;;;4940668;29;20027;-69
2023/03/19 01:10:53;;;;;;;5.60;3.22;;;;;;;;;;4940605;29;20411;-69
2023/03/19 01:13:19;;;;;;;4.68;3.90;;;;;;;;;;4940355;29;20516;-70
2023/03/19 01:15:46;;;;;;;3.70;2.72;;;;;;;;;;4940419;29;20400;-69
2023/03/19 01:18:12;;;;;;;5.95;3.67;;;;;;;;;;4937987;29;20038;-69
2023/03/19 01:20:41;;;;;;;7.10;3.55;;;;;;;;;;4937485;29;20028;-69
2023/03/19 01:23:07;;;;;;;4.00;3.00;;;;;;;;;;4937447;29;20023;-69
2023/03/19 01:25:34;;;;;;;6.55;3.42;;;;;;;;;;4937221;29;20027;-69
2023/03/19 01:28:01;;;;;;;4.10;3.40;;;;;;;;;;4937254;29;20489;-69
2023/03/19 01:30:27;;;;;;;5.63;3.22;;;;;;;;;;4944159;29;20043;-69
2023/03/19 01:32:53;;;;;;;4.57;2.80;;;;;;;;;;4956407;29;20020;-69
2023/03/19 01:35:21;;;;;;;4.25;2.90;;;;;;;;;;4956545;29;20081;-69
2023/03/19 01:37:47;;;;;;;4.82;3.13;;;;;;;;;;4956696;29;20043;-69
2023/03/19 01:40:14;;;;;;;5.65;3.30;;;;;;;;;;4956187;29;20027;-69
2023/03/19 01:42:53;;;;;;;5.60;3.30;;;;;;;;;;4955204;29;20089;-69
2023/03/19 01:45:36;;;;;;;3.70;3.13;;;;;;;;;;4956290;29;20488;-69
2023/03/19 01:48:03;;;;;;;3.75;2.60;;;;;;;;;;4956276;29;20513;-69
2023/03/19 01:50:38;;;;;;;6.18;3.05;;;;;;;;;;4956181;29;20034;-69
2023/03/19 01:53:05;;;;;;;4.80;2.78;;;;;;;;;;4956107;29;20028;-69
2023/03/19 01:55:31;;;;;;;3.92;2.30;;;;;;;;;;4956371;29;20054;-69
2023/03/19 01:57:58;;;;;;;4.25;2.70;;;;;;;;;;4955847;29;20395;-69
2023/03/19 02:00:24;;;;;;;4.55;2.55;;;;;;;;;;4956061;29;20031;-69
2023/03/19 02:02:53;;;;;;;2.95;2.38;;;;;;;;;;4956163;29;20034;-69
2023/03/19 02:05:24;;;;;;;4.30;2.70;;;;;;;;;;4955835;29;20421;-69
2023/03/19 02:07:52;;;;;;;5.57;3.22;;;;;;;;;;4955855;29;20033;-69
2023/03/19 02:10:19;;;;;;;4.47;2.60;;;;;;;;;;4938640;29;20027;-69
2023/03/19 02:12:45;;;;;;;4.03;2.58;;;;;;;;;;4955942;29;20022;-69
2023/03/19 02:15:12;;;;;;;4.10;2.72;;;;;;;;;;4955732;29;20029;-69
2023/03/19 02:17:39;;;;;;;7.07;3.03;;;;;;;;;;4956052;29;20209;-69
2023/03/19 02:20:20;;;;;;;4.22;3.00;;;;;;;;;;4955615;29;20025;-69
2023/03/19 02:23:06;;;;;;;4.95;3.33;;;;;;;;;;4955585;29;20031;-69
2023/03/19 02:25:59;;;;;;;6.88;3.17;;;;;;;;;;4895985;29;20510;-70
2023/03/19 02:28:25;;;;;;;4.25;2.90;;;;;;;;;;4894256;29;20043;-69
2023/03/19 02:30:52;;;;;;;8.27;2.80;;;;;;;;;;4880081;29;20044;-69
2023/03/19 02:33:19;;;;;;;6.38;3.40;;;;;;;;;;4896374;29;20044;-69
2023/03/19 02:35:46;;;;;;;5.95;3.25;;;;;;;;;;4896476;29;20044;-69
2023/03/19 02:38:13;;;;;;;3.65;2.83;;;;;;;;;;4880504;29;20526;-69
2023/03/19 02:40:58;;;;;;;5.25;2.80;;;;;;;;;;4895990;29;20028;-69
2023/03/19 02:43:24;;;;;;;4.43;2.70;;;;;;;;;;4896334;29;20093;-69
2023/03/19 02:45:51;;;;;;;5.72;2.70;;;;;;;;;;4896030;29;20043;-69
2023/03/19 02:48:17;;;;;;;5.35;3.03;;;;;;;;;;4896213;29;20031;-69
2023/03/19 02:50:44;;;;;;;6.85;2.50;;;;;;;;;;4895891;29;20051;-69
2023/03/19 02:53:10;;;;;;;2.25;2.05;;;;;;;;;;4896248;29;20028;-69
2023/03/19 02:55:36;;;;;;;4.10;2.50;;;;;;;;;;4895623;29;20036;-69
2023/03/19 02:58:03;;;;;;;3.78;2.38;;;;;;;;;;4895850;29;20044;-69
2023/03/19 03:00:29;;;;;;;4.05;2.65;;;;;;;;;;4895746;29;20525;-69
2023/03/19 03:02:56;;;;;;;4.88;2.80;;;;;;;;;;4932621;29;20050;-69
2023/03/19 03:05:23;;;;;;;4.80;3.20;;;;;;;;;;4954817;29;20035;-69
2023/03/19 03:07:49;;;;;;;4.22;2.72;;;;;;;;;;4954796;29;20023;-69
2023/03/19 03:10:16;;;;;;;3.33;2.97;;;;;;;;;;4954617;29;20042;-69
2023/03/19 03:12:43;;;;;;;5.95;2.75;;;;;;;;;;4955001;29;20022;-69
2023/03/19 03:15:09;;;;;;;5.25;3.47;;;;;;;;;;4954569;29;20089;-69
2023/03/19 03:17:37;;;;;;;7.05;3.22;;;;;;;;;;4937419;29;20038;-69
2023/03/19 03:20:04;;;;;;;4.00;3.22;;;;;;;;;;4955001;29;20039;-69
2023/03/19 03:22:31;;;;;;;6.18;3.15;;;;;;;;;;4954439;29;20395;-68
2023/03/19 03:24:58;;;;;;;5.60;3.80;;;;;;;;;;4954203;29;20042;-68
2023/03/19 03:27:25;;;;;;;5.63;4.03;;;;;;;;;;4954437;29;20023;-69
2023/03/19 03:29:52;;;;;;;7.15;3.90;;;;;;;;;;4954216;29;20019;-69
2023/03/19 03:32:18;;;;;;;6.32;4.40;;;;;;;;;;4954182;29;20094;-69
2023/03/19 03:34:45;;;;;;;6.07;4.13;;;;;;;;;;4954389;29;20035;-70
2023/03/19 03:37:11;;;;;;;6.13;4.15;;;;;;;;;;4954301;29;20027;-69
2023/03/19 03:39:38;;;;;;;7.93;3.97;;;;;;;;;;4953906;29;20515;-69
2023/03/19 03:42:04;;;;;;;6.35;4.63;;;;;;;;;;4954002;28;20029;-69
2023/03/19 03:44:30;;;;;;;8.00;5.07;;;;;;;;;;4954170;29;20031;-69
2023/03/19 03:46:57;;;;;;;10.10;4.93;;;;;;;;;;4954211;29;20033;-70
2023/03/19 03:49:23;;;;;;;9.18;4.95;;;;;;;;;;4954267;29;20034;-69
2023/03/19 03:51:51;;;;;;;8.32;5.47;;;;;;;;;;4953848;29;20019;-69
2023/03/19 03:54:17;;;;;;;7.25;4.57;;;;;;;;;;4953910;29;20058;-69
2023/03/19 03:56:44;;;;;;;6.85;4.95;;;;;;;;;;4953904;29;20037;-69
2023/03/19 03:59:10;;;;;;;6.47;4.80;;;;;;;;;;4954062;29;20034;-69
2023/03/19 04:01:36;;;;;;;6.18;4.82;;;;;;;;;;4954240;29;20031;-70
2023/03/19 04:04:03;;;;;;;6.65;4.90;;;;;;;;;;4954066;29;20031;-69
2023/03/19 04:06:30;;;;;;;5.85;4.60;;;;;;;;;;4953854;29;20024;-69
2023/03/19 04:08:56;;;;;;;5.88;4.43;;;;;;;;;;4953932;29;20027;-69
2023/03/19 04:11:22;;;;;;;5.88;3.97;;;;;;;;;;4953927;29;20499;-69
2023/03/19 04:13:49;;;;;;;5.53;4.40;;;;;;;;;;4953997;29;20034;-69
2023/03/19 04:16:15;;;;;;;5.88;4.50;;;;;;;;;;4954168;29;20097;-69
2023/03/19 04:18:42;;;;;;;6.50;4.22;;;;;;;;;;4953910;29;20022;-69
2023/03/19 04:21:08;;;;;;;6.47;4.32;;;;;;;;;;4953504;29;20031;-69
2023/03/19 04:23:34;;;;;;;6.95;5.13;;;;;;;;;;4953750;29;20447;-70
2023/03/19 04:26:02;;;;;;;9.00;4.90;;;;;;;;;;4953913;29;20024;-69
2023/03/19 04:28:29;;;;;;;7.68;5.63;;;;;;;;;;4936662;29;20074;-70
2023/03/19 04:30:59;;;;;;;8.18;4.93;;;;;;;;;;4953675;29;20050;-69
2023/03/19 04:33:25;;;;;;;8.17;5.83;;;;;;;;;;4953945;29;20035;-69
2023/03/19 04:35:53;;;;;;;6.20;5.35;;;;;;;;;;4953735;29;20263;-69
2023/03/19 04:38:19;;;;;;;7.60;5.30;;;;;;;;;;4953659;29;20440;-69
2023/03/19 04:40:47;;;;;;;9.23;5.57;;;;;;;;;;4953593;29;20062;-70
2023/03/19 04:43:13;;;;;;;7.03;5.40;;;;;;;;;;4953818;29;20026;-70
2023/03/19 04:45:39;;;;;;;7.88;5.60;;;;;;;;;;4952407;29;20035;-70
2023/03/19 04:48:06;;;;;;;9.25;5.15;;;;;;;;;;4953545;29;20085;-69
2023/03/19 04:50:33;;;;;;;8.25;4.78;;;;;;;;;;4953442;29;20116;-69
2023/03/19 04:53:00;;;;;;;6.10;4.60;;;;;;;;;;4954865;28;20027;-70
2023/03/19 04:55:26;;;;;;;7.95;4.38;;;;;;;;;;4940392;29;20025;-69
2023/03/19 04:57:53;;;;;;;7.78;4.90;;;;;;;;;;4957090;29;20031;-69
2023/03/19 05:00:20;;;;;;;7.43;4.82;;;;;;;;;;4955761;29;20042;-69
2023/03/19 05:02:46;;;;;;;6.40;4.47;;;;;;;;;;4957090;29;20038;-69
2023/03/19 05:05:13;;;;;;;7.63;5.15;;;;;;;;;;4956954;29;20093;-69
2023/03/19 05:07:41;;;;;;;6.55;5.07;;;;;;;;;;4956995;29;20039;-69
2023/03/19 05:10:08;;;;;;;6.85;4.68;;;;;;;;;;4957047;29;20023;-70
2023/03/19 05:12:34;;;;;;;6.40;4.20;;;;;;;;;;4956956;29;20049;-69
2023/03/19 05:15:01;;;;;;;6.18;4.07;;;;;;;;;;4956834;29;20081;-69
2023/03/19 05:17:27;;;;;;;7.32;4.57;;;;;;;;;;4956666;29;20027;-69
2023/03/19 05:19:54;;;;;;;5.93;5.03;;;;;;;;;;4956626;29;20213;-69
2023/03/19 05:22:21;;;;;;;7.43;4.32;;;;;;;;;;4956679;29;20399;-69
2023/03/19 05:24:47;;;;;;;6.93;5.18;;;;;;;;;;4956605;29;20031;-69
2023/03/19 05:27:13;;;;;;;5.90;5.03;;;;;;;;;;4955691;29;20035;-69
2023/03/19 05:29:41;;;;;;;12.23;5.95;;;;;;;;;;4956408;29;20031;-69
2023/03/19 05:32:09;;;;;;;7.70;5.85;;;;;;;;;;4956388;29;20072;-69
2023/03/19 05:34:36;;;;;;;6.88;5.20;;;;;;;;;;4956535;29;20029;-70
2023/03/19 05:37:02;;;;;;;8.88;5.55;;;;;;;;;;4956428;29;20023;-69
2023/03/19 05:39:29;;;;;;;8.20;6.00;;;;;;;;;;4956560;29;20028;-69
2023/03/19 05:41:55;;;;;;;8.90;6.22;;;;;;;;;;4956429;29;20205;-69
2023/03/19 05:44:21;;;;;;;7.07;6.20;;;;;;;;;;4956350;29;20035;-69
2023/03/19 05:46:48;;;;;;;6.78;5.65;;;;;;;;;;4956269;29;20015;-69
2023/03/19 05:49:14;;;;;;;5.90;4.95;;;;;;;;;;4956236;29;20031;-69
2023/03/19 05:51:40;;;;;;;5.20;4.57;;;;;;;;;;4956159;29;20062;-69
2023/03/19 05:54:07;;;;;;;6.30;4.70;;;;;;;;;;4956082;29;20400;-69
2023/03/19 05:56:33;;;;;;;6.82;4.57;;;;;;;;;;4956115;29;20469;-70
2023/03/19 05:58:59;;;;;;;5.78;3.97;;;;;;;;;;4956401;29;20037;-69
2023/03/19 06:01:26;;;;;;;7.93;4.45;;;;;;;;;;4948411;29;20031;-69
2023/03/19 06:03:52;;;;;;;6.72;4.25;;;;;;;;;;4955419;28;20037;-69
2023/03/19 06:06:18;;;;;;;4.68;4.10;;;;;;;;;;4955679;29;20027;-69
2023/03/19 06:08:45;;;;;;;5.07;4.00;;;;;;;;;;4955851;29;20019;-69
2023/03/19 06:11:11;;;;;;;4.28;3.88;;;;;;;;;;4955813;29;20034;-69
2023/03/19 06:13:38;;;;;;;6.78;4.03;;;;;;;;;;4955765;29;20045;-69
2023/03/19 06:16:05;;;;;;;6.32;3.58;;;;;;;;;;4955964;29;20145;-69
2023/03/19 06:18:32;;;;;;;6.68;3.85;;;;;;;;;;4955546;29;20028;-69
2023/03/19 06:20:58;;;;;;;7.60;3.70;;;;;;;;;;4955748;29;20027;-69
2023/03/19 06:23:25;;;;;;;4.75;3.65;;;;;;;;;;4955492;29;20039;-69
2023/03/19 06:25:51;;;;;;;5.00;3.83;;;;;;;;;;4955471;29;20046;-69
2023/03/19 06:28:17;;;;;;;4.40;3.75;;;;;;;;;;4955769;29;20055;-69
2023/03/19 06:30:44;;;;;;;4.70;3.75;;;;;;;;;;4949230;29;20044;-69
2023/03/19 06:33:10;;;;;;;5.45;3.65;;;;;;;;;;4936054;29;20493;-69
2023/03/19 06:35:36;;;;;;;5.20;3.72;;;;;;;;;;4936378;29;20032;-69
2023/03/19 06:38:03;;;;;;;5.63;3.55;;;;;;;;;;4936415;29;20046;-69
2023/03/19 06:40:29;;;;;;;4.75;3.30;;;;;;;;;;4936145;29;20078;-69
2023/03/19 06:42:55;;;;;;;5.60;3.42;;;;;;;;;;4936437;29;20039;-69
2023/03/19 06:45:22;;;;;;;5.90;3.45;;;;;;;;;;4935940;29;20032;-69
2023/03/19 06:47:49;;;;;;;4.72;2.85;;;;;;;;;;4936041;29;20020;-69
2023/03/19 06:50:16;;;;;;;4.05;2.33;;;;;;;;;;4935970;29;20519;-69
2023/03/19 06:52:43;;;;;;;4.10;2.90;;;;;;;;;;4935935;29;20469;-69
2023/03/19 06:55:11;;;;;;;4.40;2.78;;;;;;;;;;4936357;29;20090;-69
2023/03/19 06:57:37;;;;;;;5.20;3.08;;;;;;;;;;4935687;29;20020;-69
2023/03/19 07:00:04;;;;;;;3.10;2.78;;;;;;;;;;4935834;29;20515;-69
2023/03/19 07:02:31;;;;;;;5.30;2.90;;;;;;;;;;4935480;29;20020;-69
2023/03/19 07:04:57;;;;;;;4.88;3.38;;;;;;;;;;4934444;29;20039;-69
2023/03/19 07:07:23;;;;;;;4.80;3.28;;;;;;;;;;4935765;29;20028;-69
2023/03/19 07:09:50;;;;;;;6.75;3.53;;;;;;;;;;4936183;29;20044;-69
2023/03/19 07:12:16;;;;;;;4.45;3.25;;;;;;;;;;4935839;29;20022;-69
2023/03/19 07:14:42;;;;;;;5.35;3.70;;;;;;;;;;4935583;29;20035;-69
2023/03/19 07:17:09;;;;;;;6.07;4.80;;;;;;;;;;4934928;29;20396;-69
2023/03/19 07:19:35;;;;;;;7.35;5.40;;;;;;;;;;4935374;29;20023;-69
2023/03/19 07:22:02;;;;;;;6.88;5.03;;;;;;;;;;4935488;29;20019;-69
2023/03/19 07:24:28;;;;;;;8.52;5.00;;;;;;;;;;4935405;29;20037;-69
2023/03/19 07:26:55;;;;;;;6.40;4.13;;;;;;;;;;4935435;29;20023;-69
2023/03/19 07:29:21;;;;;;;6.93;4.22;;;;;;;;;;4935053;29;20024;-69
2023/03/19 07:31:48;;;;;;;5.75;3.15;;;;;;;;;;4949655;29;20040;-69
2023/03/19 07:34:14;;;;;;;5.43;3.80;;;;;;;;;;4954590;29;20027;-69
2023/03/19 07:36:41;;;;;;;4.65;3.42;;;;;;;;;;4954353;29;20038;-69
2023/03/19 07:39:07;;;;;;;6.03;4.28;;;;;;;;;;4954244;29;20026;-69
2023/03/19 07:41:34;;;;;;;6.53;4.75;;;;;;;;;;4954369;29;20027;-69
2023/03/19 07:44:00;;;;;;;5.70;4.70;;;;;;;;;;4954180;29;20037;-69
2023/03/19 07:46:27;;;;;;;6.40;3.58;;;;;;;;;;4954411;29;20069;-69
2023/03/19 07:48:53;;;;;;;3.80;3.40;;;;;;;;;;4954431;29;20053;-69
2023/03/19 07:51:20;;;;;;;6.03;3.67;;;;;;;;;;4953999;29;20030;-68
2023/03/19 07:53:47;;;;;;;5.47;3.53;;;;;;;;;;4954003;29;20031;-69
2023/03/19 07:56:13;;;;;;;3.95;3.50;;;;;;;;;;4954034;29;20016;-69
2023/03/19 07:58:39;;;;;;;4.70;3.55;;;;;;;;;;4953858;29;20027;-69
2023/03/19 08:01:06;;;;;;;3.83;3.35;;;;;;;;;;4953899;29;20023;-69
2023/03/19 08:03:32;;;;;;;4.70;3.67;;;;;;;;;;4953990;29;20037;-69
2023/03/19 08:05:58;;;;;;;4.40;4.00;;;;;;;;;;4954254;29;20023;-69
2023/03/19 08:08:25;;;;;;;4.40;3.80;;;;;;;;;;4953959;29;20518;-69
2023/03/19 08:10:53;;;;;;;4.95;4.30;;;;;;;;;;4953895;29;20042;-69
2023/03/19 08:13:20;;;;;;;6.72;4.13;;;;;;;;;;4953842;29;20041;-70
2023/03/19 08:15:46;;;;;;;4.00;3.60;;;;;;;;;;4953836;29;20024;-69
2023/03/19 08:18:12;;;;;;;5.28;4.00;;;;;;;;;;4953787;29;20038;-69
2023/03/19 08:20:39;;;;;;;4.30;3.80;;;;;;;;;;4954257;29;20015;-69
2023/03/19 08:23:06;;;;;;;5.15;3.88;;;;;;;;;;4953814;29;20038;-69
2023/03/19 08:25:32;;;;;;;4.55;3.28;;;;;;;;;;4953760;29;20547;-70
2023/03/19 08:28:01;;;;;;;4.55;3.10;;;;;;;;;;4955460;28;20027;-69
2023/03/19 08:30:28;;;;;;;4.70;3.20;;;;;;;;;;4957614;29;20055;-69
2023/03/19 08:32:54;;;;;;;3.83;3.03;;;;;;;;;;4957832;29;20023;-69
2023/03/19 08:35:21;;;;;;;5.05;3.25;;;;;;;;;;4957625;29;20042;-69
2023/03/19 08:37:47;;;;;;;3.78;2.78;;;;;;;;;;4957598;29;20364;-69
2023/03/19 08:40:13;;;;;;;4.78;2.58;;;;;;;;;;4957456;29;20023;-69
2023/03/19 08:42:41;;;;;;;2.55;2.10;;;;;;;;;;4957572;29;20027;-69
2023/03/19 08:45:09;;;;;;;1.90;1.80;;;;;;;;;;4957476;29;20041;-69
2023/03/19 08:47:35;;;;;;;2.28;1.95;;;;;;;;;;4957350;29;20024;-69
2023/03/19 08:50:01;;;;;;;3.25;1.55;;;;;;;;;;4957604;29;20031;-70
2023/03/19 08:52:28;;;;;;;2.03;1.83;;;;;;;;;;4957378;29;20021;-69
2023/03/19 08:54:54;;;;;;;2.13;1.55;;;;;;;;;;4957398;29;20069;-69
2023/03/19 08:57:21;;;;;;;2.40;1.80;;;;;;;;;;4957411;29;20041;-69
2023/03/19 08:59:47;;;;;;;2.13;1.90;;;;;;;;;;4957121;29;20023;-69
2023/03/19 09:02:13;;;;;;;2.38;1.90;;;;;;;;;;4956995;29;20027;-69
2023/03/19 09:04:40;;;;;;;2.80;2.00;;;;;;;;;;4939626;29;20043;-69
2023/03/19 09:07:07;;;;;;;2.92;2.00;;;;;;;;;;4957216;29;20053;-70
2023/03/19 09:09:33;;;;;;;1.60;1.50;;;;;;;;;;4957034;29;20023;-69
2023/03/19 09:11:59;;;;;;;2.08;1.88;;;;;;;;;;4957032;29;20035;-69
2023/03/19 09:14:26;;;;;;;2.85;2.00;;;;;;;;;;4956749;29;20093;-69
2023/03/19 09:16:54;;;;;;;1.92;1.70;;;;;;;;;;4939737;29;20049;-70
2023/03/19 09:19:22;;;;;;;2.28;2.08;;;;;;;;;;4956930;29;20038;-69
2023/03/19 09:21:49;;;;;;;3.00;1.98;;;;;;;;;;4940345;29;20030;-69
2023/03/19 09:24:15;;;;;;;3.17;1.83;;;;;;;;;;4956534;29;20477;-69
2023/03/19 09:26:41;;;;;;;2.90;2.10;;;;;;;;;;4956772;29;20039;-70
2023/03/19 09:29:08;;;;;;;2.78;2.05;;;;;;;;;;4956605;29;20411;-70
2023/03/19 09:31:35;;;;;;;1.90;1.42;;;;;;;;;;4956151;29;20051;-69
2023/03/19 09:34:01;;;;;;;2.05;1.65;;;;;;;;;;4956716;29;20024;-69
2023/03/19 09:36:27;;;;;;;1.88;1.67;;;;;;;;;;4956542;29;20041;-69
2023/03/19 09:38:54;;;;;;;1.80;1.70;;;;;;;;;;4955340;28;20019;-69
2023/03/19 09:41:27;;;;;;;2.22;1.60;;;;;;;;;;4956406;29;20050;-70
2023/03/19 09:43:53;;;;;;;3.20;1.92;;;;;;;;;;4956405;29;20028;-69
2023/03/19 09:46:22;;;;;;;1.58;1.48;;;;;;;;;;4955099;29;20448;-69
2023/03/19 09:49:03;;;;;;;2.00;1.80;;;;;;;;;;4956665;29;20484;-69
2023/03/19 09:51:29;;;;;;;;;;;;;;;;;;4956775;29;20031;-69
2023/03/19 09:53:58;;;;;;;1.05;0.95;;;;;;;;;;4956161;29;20355;-69
2023/03/19 09:56:25;;;;;;;0.93;0.60;;;;;;;;;;4956053;29;20035;-69
2023/03/19 09:58:51;;;;;;;0.82;0.60;;;;;;;;;;4956082;29;20031;-69
2023/03/19 10:01:29;;;;;;;0.90;0.60;;;;;;;;;;4956130;29;20031;-69
2023/03/19 10:03:56;;;;;;;1.15;0.73;;;;;;;;;;4955882;29;20035;-70
2023/03/19 10:06:33;;;;;;;1.30;0.70;;;;;;;;;;4956019;29;20484;-69
2023/03/19 10:09:03;;;;;;;1.20;0.73;;;;;;;;;;4955677;29;20027;-69
2023/03/19 10:11:55;;;;;;;1.73;0.73;;;;;;;;;;4938790;29;20038;-69
2023/03/19 10:14:36;;;;;;;1.77;0.80;;;;;;;;;;4955799;29;20033;-70
2023/03/19 10:17:04;;;;;;;1.90;1.60;;;;;;;;;;4955740;29;20023;-69
2023/03/19 10:19:40;;;;;;;3.88;1.90;;;;;;;;;;4955674;29;20026;-70
2023/03/19 10:22:12;;;;;;;1.35;0.80;;;;;;;;;;4955904;29;20031;-69
2023/03/19 10:24:40;;;;;;;0.85;0.70;;;;;;;;;;4955343;29;20025;-69
2023/03/19 10:27:12;;;;;;;0.50;0.40;;;;;;;;;;4955856;29;20028;-69
2023/03/19 10:29:40;;;;;;;2.03;0.38;;;;;;;;;;4955581;29;20020;-69
2023/03/19 10:32:08;;;;;;;1.20;0.60;;;;;;;;;;4938460;29;20047;-69
2023/03/19 10:34:40;;;;;;;0.93;0.50;;;;;;;;;;4936389;29;20032;-69
2023/03/19 10:37:12;;;;;;;1.42;0.43;;;;;;;;;;4936269;29;20057;-69
2023/03/19 10:39:40;;;;;;;1.05;0.30;;;;;;;;;;4935828;29;20399;-69
2023/03/19 10:42:18;;;;;;;0.77;0.65;;;;;;;;;;4936097;29;20032;-69
2023/03/19 10:44:53;;;;;;;2.28;1.52;;;;;;;;;;4936151;29;20032;-70
2023/03/19 10:47:24;;;;;;;3.10;2.00;;;;;;;;;;4936081;29;20408;-69
2023/03/19 10:49:51;;;;;;;2.30;1.65;;;;;;;;;;4935931;29;20031;-69
2023/03/19 10:52:34;;;;;;;1.63;1.20;;;;;;;;;;4935807;29;20023;-69
2023/03/19 10:55:03;;;;;;;3.67;1.58;;;;;;;;;;4936120;29;20054;-69
2023/03/19 10:57:32;;;;;;;7.13;3.03;;;;;;;;;;4936136;29;20032;-69
2023/03/19 11:00:05;;;;;;;10.88;4.10;;;;;;;;;;4918802;29;20034;-69
2023/03/19 11:02:32;;;;;;;6.15;2.97;;;;;;;;;;4929037;29;20040;-69
2023/03/19 11:05:06;;;;;;;1.30;0.77;;;;;;;;;;4935621;29;20043;-69
2023/03/19 11:07:33;;;;;;;2.95;1.63;;;;;;;;;;4935419;29;20023;-69
2023/03/19 11:09:59;;;;;;;17.88;10.75;;;;;;;;;;4935965;29;20062;-69
2023/03/19 11:12:26;;;;;;;13.45;7.75;;;;;;;;;;4935782;29;20023;-68
2023/03/19 11:14:53;;;;;;;1.30;1.20;;;;;;;;;;4935477;29;20027;-68
2023/03/19 11:17:19;;;;;;;2.38;1.27;;;;;;;;;;4935626;29;20379;-69
2023/03/19 11:20:09;;;;;;;1.65;0.98;;;;;;;;;;4935244;29;20432;-69
2023/03/19 11:22:36;;;;;;;0.90;0.68;;;;;;;;;;4929978;29;20040;-69
2023/03/19 11:25:13;;;;;;;0.70;0.70;;;;;;;;;;4935395;29;20028;-70
2023/03/19 11:27:40;;;;;;;0.30;0.30;;;;;;;;;;4935435;29;20030;-70
2023/03/19 11:30:12;;;;;;;0.45;0.43;;;;;;;;;;4936452;29;20050;-70
2023/03/19 11:32:39;;;;;;;0.35;0.35;;;;;;;;;;4954829;29;20031;-69
2023/03/19 11:35:06;;;;;;;1.20;0.70;;;;;;;;;;4954354;29;20039;-69
2023/03/19 11:37:52;;;;;;;0.70;0.50;;;;;;;;;;4954179;29;20027;-70
2023/03/19 11:40:31;;;;;;;2.33;1.10;;;;;;;;;;4954451;29;20031;-69
2023/03/19 11:43:00;;;;;;;3.17;0.80;;;;;;;;;;4954341;29;20023;-70
2023/03/19 11:45:26;;;;;;;0.57;0.57;;;;;;;;;;4954279;29;20483;-69
2023/03/19 11:47:56;;;;;;;1.60;1.08;;;;;;;;;;4954321;29;20024;-69
2023/03/19 11:50:41;;;;;;;1.98;1.13;;;;;;;;;;4953920;29;20031;-69
2023/03/19 11:53:20;;;;;;;1.98;1.45;;;;;;;;;;4954323;29;20016;-69
2023/03/19 11:55:50;;;;;;;1.60;1.10;;;;;;;;;;4954378;29;20023;-69
2023/03/19 11:58:33;;;;;;;3.72;2.72;;;;;;;;;;4954113;29;20484;-70
2023/03/19 12:01:09;;;;;;;2.33;1.58;;;;;;;;;;4954159;29;20127;-69
2023/03/19 12:03:53;;;;;;;2.83;2.05;;;;;;;;;;4953401;28;20027;-70
2023/03/19 12:06:35;;;;;;;4.35;2.63;;;;;;;;;;4953836;29;20045;-69
2023/03/19 12:09:07;;;;;;;5.70;2.92;;;;;;;;;;4953969;29;20361;-69
2023/03/19 12:11:34;;;;;;;7.45;3.03;;;;;;;;;;4953987;29;20028;-69
2023/03/19 12:14:09;;;;;;;3.13;2.08;;;;;;;;;;4954064;29;20031;-69
2023/03/19 12:17:03;;;;;;;2.60;1.67;;;;;;;;;;4954207;29;20041;-69
2023/03/19 12:19:41;;;;;;;2.35;1.63;;;;;;;;;;4951408;29;20044;-69
2023/03/19 12:22:14;;;;;;;3.20;2.20;;;;;;;;;;4953809;29;20038;-69
2023/03/19 12:24:53;;;;;;;4.90;2.97;;;;;;;;;;4954070;29;20039;-69
2023/03/19 12:27:22;;;;;;;4.80;2.72;;;;;;;;;;4954080;29;20031;-69
2023/03/19 12:30:08;;;;;;;4.97;2.70;;;;;;;;;;4953956;29;20584;-70
2023/03/19 12:32:53;;;;;;;3.35;1.88;;;;;;;;;;4953955;29;20041;-70
2023/03/19 12:35:26;;;;;;;4.00;2.00;;;;;;;;;;4951068;29;20098;-70
2023/03/19 12:37:55;;;;;;;2.40;1.80;;;;;;;;;;4935179;29;20136;-69
2023/03/19 12:40:42;;;;;;;2.10;1.40;;;;;;;;;;4934341;29;20030;-69
2023/03/19 12:43:17;;;;;;;2.88;1.33;;;;;;;;;;4875919;29;20048;-69
2023/03/19 12:45:52;;;;;;;2.47;0.70;;;;;;;;;;4875889;29;20069;-69
2023/03/19 12:48:26;;;;;;;0.70;0.70;;;;;;;;;;4875669;29;20040;-70
2023/03/19 12:50:54;;;;;;;0.90;0.80;;;;;;;;;;4875700;29;20029;-69
2023/03/19 12:53:35;;;;;;;0.93;0.40;;;;;;;;;;4875922;29;20033;-69
2023/03/19 12:56:06;;;;;;;0.95;0.30;;;;;;;;;;4876089;29;20514;-70
2023/03/19 12:58:48;;;;;;;0.43;0.43;;;;;;;;;;4875955;29;20418;-70
2023/03/19 13:01:27;;;;;;;0.68;0.40;;;;;;;;;;4876028;29;20025;-70
2023/03/19 13:03:59;;;;;;;0.90;0.60;;;;;;;;;;4875665;29;20401;-69
2023/03/19 13:06:28;;;;;;;1.15;0.70;;;;;;;;;;4875974;29;20406;-70
2023/03/19 13:08:59;;;;;;;1.05;0.40;;;;;;;;;;4875685;29;20031;-69
2023/03/19 13:11:44;;;;;;;0.40;0.40;;;;;;;;;;4875878;29;20021;-69
2023/03/19 13:14:13;;;;;;;1.00;0.40;;;;;;;;;;4877379;29;20048;-70
2023/03/19 13:16:44;;;;;;;0.50;0.40;;;;;;;;;;4879167;29;20423;-69
2023/03/19 13:19:10;;;;;;;;;;;;;;;;;;4883415;29;20124;-69
2023/03/19 13:21:37;;;;;;;0.85;0.50;;;;;;;;;;4937991;29;19932;-70
2023/03/19 13:24:08;;;;;;;0.50;0.50;;;;;;;;;;4937911;29;20365;-70
2023/03/19 13:26:35;;;;;;;0.60;0.43;;;;;;;;;;4937550;29;20020;-70
2023/03/19 13:29:07;;;;;;;1.30;0.85;;;;;;;;;;4936226;29;20028;-69
2023/03/19 13:31:34;;;;;;;0.40;0.40;;;;;;;;;;4952765;29;20065;-70
2023/03/19 13:34:20;;;;;;;2.38;0.60;;;;;;;;;;4956474;29;20031;-70
2023/03/19 13:36:51;;;;;;;0.73;0.47;;;;;;;;;;4956864;29;20027;-70
2023/03/19 13:39:17;;;;;;;;;;;;;;;;;;4956890;29;20038;-69
2023/03/19 13:41:43;;;;;;;0.38;0.38;;;;;;;;;;4956520;29;19911;-70
2023/03/19 13:44:22;;;;;;;1.02;0.50;;;;;;;;;;4956269;29;20031;-68
2023/03/19 13:46:50;;;;;;;0.45;0.40;;;;;;;;;;4955955;29;20031;-70
2023/03/19 13:49:19;;;;;;;0.45;0.43;;;;;;;;;;4956506;29;20023;-69
2023/03/19 13:51:49;;;;;;;0.55;0.47;;;;;;;;;;4956129;29;20508;-70
2023/03/19 13:54:18;;;;;;;1.70;0.70;;;;;;;;;;4956410;29;20023;-70
2023/03/19 13:57:00;;;;;;;0.73;0.50;;;;;;;;;;4955856;29;20086;-70
2023/03/19 13:59:28;;;;;;;1.08;0.60;;;;;;;;;;4956258;29;20500;-70
2023/03/19 14:01:55;;;;;;;0.82;0.60;;;;;;;;;;4955827;29;20023;-70
2023/03/19 14:04:24;;;;;;;1.33;0.88;;;;;;;;;;4956132;29;20043;-70
2023/03/19 14:06:58;;;;;;;1.90;0.90;;;;;;;;;;4938761;29;20019;-69
2023/03/19 14:09:38;;;;;;;0.75;0.60;;;;;;;;;;4948027;29;20035;-69
2023/03/19 14:12:20;;;;;;;1.35;0.70;;;;;;;;;;4956179;29;20069;-69
2023/03/19 14:14:46;;;;;;;17.00;1.20;;;;;;;;;;4956209;29;20033;-71
2023/03/19 14:17:19;;;;;;;3.00;0.80;;;;;;;;;;4955822;29;20074;-70
2023/03/19 14:19:45;;;;;;;2.20;0.60;;;;;;;;;;4956207;29;20031;-70
2023/03/19 14:22:29;;;;;;;2.78;1.00;;;;;;;;;;4955835;29;20037;-70
2023/03/19 14:25:01;;;;;;;0.50;0.50;;;;;;;;;;4955540;28;20046;-70
2023/03/19 14:27:31;;;;;;;0.57;0.43;;;;;;;;;;4955605;29;20026;-70
2023/03/19 14:30:01;;;;;;;0.30;0.30;;;;;;;;;;4955455;29;20011;-70
2023/03/19 14:32:32;;;;;;;0.52;0.20;;;;;;;;;;4955517;29;20500;-70
2023/03/19 14:34:59;;;;;;;1.70;0.40;;;;;;;;;;4955560;29;20035;-70
2023/03/19 14:37:29;;;;;;;0.55;0.20;;;;;;;;;;4948227;29;20031;-70
2023/03/19 14:39:59;;;;;;;0.25;0.20;;;;;;;;;;4955707;29;20388;-70
2023/03/19 14:42:39;;;;;;;1.50;0.30;;;;;;;;;;4947609;29;20031;-70
2023/03/19 14:45:06;;;;;;;1.10;0.70;;;;;;;;;;4955023;29;20039;-70
2023/03/19 14:47:41;;;;;;;1.75;0.40;;;;;;;;;;4955356;29;20031;-70
2023/03/19 14:50:19;;;;;;;0.30;0.30;;;;;;;;;;4955419;29;20031;-70
2023/03/19 14:52:57;;;;;;;0.70;0.30;;;;;;;;;;4955377;29;20030;-70
2023/03/19 14:55:31;;;;;;;0.95;0.40;;;;;;;;;;4955149;29;20415;-69